Time;durP1;ratioP1;P1;durP2;ratioP2;P2;SDS_P1;SDS_P2;PMS_P1;PMS_P2;Temp;Humidity;BMP_temperature;BMP_pressure;BME280_temperature;BME280_humidity;BME280_pressure;Samples;Min_cycle;Max_cycle;Signal;HPM_P1;HPM_P2
2022/11/22 00:00:39;;;;;;;9.77;4.43;;;;;;;3.72;94.11;97829.91;4930766;29;20142;-47
2022/11/22 00:03:06;;;;;;;11.55;3.85;;;;;;;3.72;94.36;97840.88;4932679;29;20052;-53
2022/11/22 00:05:34;;;;;;;12.15;4.20;;;;;;;3.71;94.66;97839.28;4931530;29;20052;-52
2022/11/22 00:08:01;;;;;;;9.55;4.15;;;;;;;3.73;94.63;97836.97;4931972;29;20043;-48
2022/11/22 00:10:27;;;;;;;13.30;4.07;;;;;;;3.76;94.53;97840.91;4927743;29;20186;-47
2022/11/22 00:12:54;;;;;;;8.57;4.28;;;;;;;3.79;94.83;97840.16;4924049;29;20406;-51
2022/11/22 00:15:21;;;;;;;10.05;3.70;;;;;;;3.84;94.91;97839.84;4928874;29;20087;-48
2022/11/22 00:17:49;;;;;;;14.05;4.32;;;;;;;3.88;95.10;97838.72;4932339;29;20051;-45
2022/11/22 00:20:16;;;;;;;9.30;4.47;;;;;;;3.95;94.81;97832.53;4931940;29;20048;-47
2022/11/22 00:22:43;;;;;;;7.55;3.97;;;;;;;3.98;94.74;97829.06;4932217;29;20395;-47
2022/11/22 00:25:11;;;;;;;8.40;2.90;;;;;;;4.04;95.29;97831.13;4932050;29;20039;-48
2022/11/22 00:27:38;;;;;;;10.07;3.03;;;;;;;4.09;95.29;97830.78;4915218;29;20436;-55
2022/11/22 00:30:06;;;;;;;8.02;3.20;;;;;;;4.14;95.14;97835.94;4930975;29;20150;-46
2022/11/22 00:32:33;;;;;;;8.77;3.15;;;;;;;4.15;95.22;97831.25;4930705;29;20055;-47
2022/11/22 00:35:00;;;;;;;9.73;3.38;;;;;;;4.16;95.48;97832.81;4931684;29;20075;-44
2022/11/22 00:37:26;;;;;;;5.15;2.40;;;;;;;4.19;95.25;97827.38;4931716;29;20043;-44
2022/11/22 00:39:53;;;;;;;9.98;3.78;;;;;;;4.20;95.57;97822.69;4930450;29;20656;-45
2022/11/22 00:42:20;;;;;;;8.60;3.47;;;;;;;4.26;95.65;97821.97;4930882;29;20043;-46
2022/11/22 00:44:47;;;;;;;6.68;3.38;;;;;;;4.30;95.72;97814.59;4931851;29;20044;-46
2022/11/22 00:47:13;;;;;;;7.25;2.63;;;;;;;4.34;95.88;97822.06;4931338;29;20062;-50
2022/11/22 00:49:40;;;;;;;7.07;3.72;;;;;;;4.34;95.52;97816.59;4931473;29;20054;-46
2022/11/22 00:52:07;;;;;;;18.70;4.70;;;;;;;4.36;95.89;97811.50;4930958;29;20494;-46
2022/11/22 00:54:34;;;;;;;17.35;4.55;;;;;;;4.38;96.33;97806.44;4926486;29;20071;-47
2022/11/22 00:57:00;;;;;;;8.45;4.18;;;;;;;4.42;95.96;97812.75;4929109;29;20508;-47
2022/11/22 00:59:27;;;;;;;16.15;5.28;;;;;;;4.44;96.16;97804.94;4926628;29;21604;-46
2022/11/22 01:01:54;;;;;;;21.23;5.75;;;;;;;4.43;96.25;97803.34;4928533;29;20058;-47
2022/11/22 01:04:21;;;;;;;16.52;5.60;;;;;;;4.38;96.01;97803.69;4930525;29;20051;-47
2022/11/22 01:06:48;;;;;;;14.95;5.45;;;;;;;4.31;95.99;97802.47;4930796;29;20062;-51
2022/11/22 01:09:20;;;;;;;13.18;6.93;;;;;;;4.23;95.93;97795.34;4914613;29;20467;-47
2022/11/22 01:11:48;;;;;;;20.15;5.70;;;;;;;4.20;96.31;97800.78;4913842;29;20530;-47
2022/11/22 01:14:16;;;;;;;14.00;6.65;;;;;;;4.13;96.33;97801.47;4930756;29;20564;-47
2022/11/22 01:16:43;;;;;;;14.25;6.70;;;;;;;4.11;96.59;97808.50;4930951;29;20055;-49
2022/11/22 01:19:10;;;;;;;14.32;5.72;;;;;;;4.08;96.29;97809.25;4931158;29;20143;-46
2022/11/22 01:21:37;;;;;;;17.50;6.13;;;;;;;4.06;96.77;97800.63;4930675;29;20142;-47
2022/11/22 01:24:07;;;;;;;10.82;5.45;;;;;;;4.04;96.71;97800.22;4930277;29;20058;-46
2022/11/22 01:26:34;;;;;;;10.32;4.65;;;;;;;4.00;96.45;97805.63;4931050;29;20140;-45
2022/11/22 01:29:01;;;;;;;11.00;5.05;;;;;;;4.00;96.84;97808.38;4930813;29;20083;-46
2022/11/22 01:31:28;;;;;;;8.95;4.63;;;;;;;3.97;96.46;97809.13;4929823;29;20126;-52
2022/11/22 01:33:57;;;;;;;9.93;4.30;;;;;;;3.97;96.88;97809.13;4929480;29;20055;-48
2022/11/22 01:36:25;;;;;;;12.93;4.15;;;;;;;3.99;96.71;97804.06;4930667;29;20612;-47
2022/11/22 01:38:52;;;;;;;7.68;3.50;;;;;;;4.00;96.85;97805.63;4930342;29;20442;-48
2022/11/22 01:41:19;;;;;;;10.85;4.25;;;;;;;3.97;96.90;97798.16;4930681;29;20086;-51
2022/11/22 01:43:46;;;;;;;10.57;3.97;;;;;;;3.94;96.61;97790.72;4930687;29;20060;-46
2022/11/22 01:46:25;;;;;;;8.32;3.65;;;;;;;3.91;97.00;97799.69;4930555;29;20056;-47
2022/11/22 01:48:58;;;;;;;17.98;4.18;;;;;;;3.90;96.64;97798.09;4929617;29;20063;-47
2022/11/22 01:51:35;;;;;;;8.45;3.83;;;;;;;3.84;96.67;97805.03;4930618;29;20060;-46
2022/11/22 01:54:08;;;;;;;9.77;5.60;;;;;;;3.79;96.62;97805.38;4930620;29;20070;-47
2022/11/22 01:56:37;;;;;;;12.55;4.53;;;;;;;3.76;97.16;97800.63;4930068;29;20047;-48
2022/11/22 01:59:09;;;;;;;8.52;3.40;;;;;;;3.73;97.04;97806.09;4930730;29;20062;-46
2022/11/22 02:01:36;;;;;;;4.57;2.80;;;;;;;3.72;96.97;97808.03;4929669;29;20051;-48
2022/11/22 02:04:07;;;;;;;6.57;3.50;;;;;;;3.72;96.93;97808.03;4929715;29;20094;-47
2022/11/22 02:06:58;;;;;;;7.55;3.65;;;;;;;3.74;97.25;97811.19;4929923;29;20062;-46
2022/11/22 02:09:26;;;;;;;9.52;4.15;;;;;;;3.75;97.24;97799.09;4930000;29;20510;-52
2022/11/22 02:11:57;;;;;;;5.70;3.60;;;;;;;3.78;97.33;97809.28;4930017;29;20036;-52
2022/11/22 02:14:26;;;;;;;8.75;4.00;;;;;;;3.79;97.36;97808.09;4927300;29;20059;-46
2022/11/22 02:16:53;;;;;;;6.63;4.07;;;;;;;3.79;97.30;97810.06;4930003;29;20607;-50
2022/11/22 02:19:37;;;;;;;7.45;4.10;;;;;;;3.77;96.80;97817.84;4926749;29;20672;-49
2022/11/22 02:22:22;;;;;;;6.13;4.03;;;;;;;3.76;96.79;97808.09;4929608;29;20488;-48
2022/11/22 02:24:55;;;;;;;11.32;4.88;;;;;;;3.80;97.04;97812.44;4919972;29;20663;-51
2022/11/22 02:27:23;;;;;;;7.60;3.80;;;;;;;3.82;96.99;97823.00;4929276;29;20138;-53
2022/11/22 02:29:49;;;;;;;11.00;3.90;;;;;;;3.85;97.12;97828.53;4926705;29;20146;-47
2022/11/22 02:32:16;;;;;;;7.32;3.97;;;;;;;3.89;97.15;97832.06;4928683;29;20554;-49
2022/11/22 02:34:46;;;;;;;8.32;3.75;;;;;;;3.92;97.18;97831.34;4929940;29;20055;-47
2022/11/22 02:37:17;;;;;;;7.28;3.85;;;;;;;3.97;97.11;97824.78;4929601;29;20147;-47
2022/11/22 02:39:47;;;;;;;8.32;3.50;;;;;;;3.96;97.32;97828.66;4929757;29;20068;-46
2022/11/22 02:42:13;;;;;;;8.32;3.47;;;;;;;3.97;97.38;97841.19;4929230;29;20079;-47
2022/11/22 02:44:41;;;;;;;5.85;3.50;;;;;;;3.94;97.25;97840.00;4912789;29;20083;-47
2022/11/22 02:47:07;;;;;;;8.38;4.15;;;;;;;3.94;97.18;97841.94;4929746;29;20159;-46
2022/11/22 02:49:34;;;;;;;9.98;4.80;;;;;;;3.95;97.53;97852.50;4929580;29;20036;-48
2022/11/22 02:52:01;;;;;;;11.63;3.78;;;;;;;3.98;97.58;97848.22;4929689;29;20516;-46
2022/11/22 02:54:28;;;;;;;11.07;3.83;;;;;;;4.02;97.36;97846.34;4929480;29;20513;-46
2022/11/22 02:56:54;;;;;;;8.70;4.10;;;;;;;4.07;97.72;97854.22;4929766;29;20138;-46
2022/11/22 02:59:22;;;;;;;6.13;4.00;;;;;;;4.11;97.78;97844.88;4929570;29;20155;-53
2022/11/22 03:01:49;;;;;;;10.27;4.07;;;;;;;4.17;98.03;97857.09;4948618;23;20517;-49
2022/11/22 03:04:25;;;;;;;7.88;3.60;;;;;;;4.24;97.81;97846.19;4927018;29;20050;-46
2022/11/22 03:06:56;;;;;;;13.43;3.88;;;;;;;4.27;97.50;97853.69;4927895;29;20070;-46
2022/11/22 03:09:25;;;;;;;8.18;3.78;;;;;;;4.26;97.66;97849.34;4927928;29;20056;-47
2022/11/22 03:11:53;;;;;;;13.68;3.38;;;;;;;4.28;98.01;97846.25;4927876;29;20044;-47
2022/11/22 03:14:20;;;;;;;5.88;3.60;;;;;;;4.28;98.18;97846.25;4923678;29;20131;-43
2022/11/22 03:16:48;;;;;;;5.72;4.35;;;;;;;4.28;97.82;97841.56;4935937;28;20517;-44
2022/11/22 03:19:16;;;;;;;10.05;3.58;;;;;;;4.28;98.13;97838.03;4932888;29;20134;-51
2022/11/22 03:21:42;;;;;;;6.25;3.33;;;;;;;4.27;98.21;97837.25;4935762;29;20054;-44
2022/11/22 03:24:10;;;;;;;9.88;3.05;;;;;;;4.24;97.97;97839.94;4932893;29;20051;-44
2022/11/22 03:26:37;;;;;;;12.95;4.35;;;;;;;4.21;98.11;97836.00;4933167;29;20086;-43
2022/11/22 03:29:05;;;;;;;6.95;3.33;;;;;;;4.17;97.89;97835.19;4932831;29;20441;-44
2022/11/22 03:31:32;;;;;;;7.07;3.17;;;;;;;4.12;97.92;97835.50;4930770;29;20055;-44
2022/11/22 03:33:58;;;;;;;8.00;2.90;;;;;;;4.08;98.28;97836.63;4930879;29;20450;-47
2022/11/22 03:36:25;;;;;;;8.77;3.63;;;;;;;4.02;98.07;97838.13;4914479;29;20074;-46
2022/11/22 03:38:52;;;;;;;6.55;3.08;;;;;;;3.94;97.90;97837.25;4931087;29;20446;-45
2022/11/22 03:41:19;;;;;;;11.07;3.50;;;;;;;3.89;98.55;97845.75;4930958;29;20048;-46
2022/11/22 03:43:45;;;;;;;7.20;3.25;;;;;;;3.84;98.18;97859.78;4930807;29;20453;-45
2022/11/22 03:46:14;;;;;;;9.38;3.53;;;;;;;3.81;98.50;97855.06;4931946;29;20066;-45
2022/11/22 03:48:41;;;;;;;13.73;3.70;;;;;;;3.80;98.49;97858.16;4931571;29;20497;-53
2022/11/22 03:51:08;;;;;;;13.85;5.47;;;;;;;3.78;98.50;97872.22;4930107;29;20043;-47
2022/11/22 03:53:35;;;;;;;8.00;3.65;;;;;;;3.78;98.89;97866.75;4931161;29;20058;-46
2022/11/22 03:56:02;;;;;;;8.90;3.67;;;;;;;3.82;98.67;97872.25;4930817;29;20558;-52
2022/11/22 03:58:29;;;;;;;8.45;3.72;;;;;;;3.82;98.58;97858.56;4931105;29;20106;-45
2022/11/22 04:00:56;;;;;;;7.10;3.85;;;;;;;3.82;98.58;97864.03;4929073;29;20135;-48
2022/11/22 04:03:23;;;;;;;9.70;3.83;;;;;;;3.81;98.70;97866.00;4931602;29;20051;-46
2022/11/22 04:05:50;;;;;;;6.80;3.55;;;;;;;3.79;98.39;97859.31;4931322;29;20052;-46
2022/11/22 04:08:17;;;;;;;10.68;3.72;;;;;;;3.73;98.74;97864.34;4931709;29;20127;-45
2022/11/22 04:10:44;;;;;;;7.57;3.17;;;;;;;3.69;98.45;97864.28;4913593;29;20051;-46
2022/11/22 04:13:10;;;;;;;14.43;4.05;;;;;;;3.67;98.76;97860.34;4930581;29;20044;-45
2022/11/22 04:15:37;;;;;;;11.35;3.50;;;;;;;3.64;98.43;97866.53;4929039;29;20048;-47
2022/11/22 04:18:07;;;;;;;7.03;3.50;;;;;;;3.61;98.80;97878.22;4932340;29;20095;-45
2022/11/22 04:23:21;;;;;;;6.30;2.88;;;;;;;3.60;98.56;97877.44;4931513;29;20063;-47
2022/11/22 04:25:50;;;;;;;7.53;3.53;;;;;;;3.58;98.46;97887.94;4931256;29;20402;-47
2022/11/22 04:28:22;;;;;;;13.20;3.28;;;;;;;3.58;98.68;97893.41;4929592;29;20046;-46
2022/11/22 04:33:55;;;;;;;5.68;2.47;;;;;;;3.61;98.54;97897.38;4931728;29;20056;-47
2022/11/22 04:36:21;;;;;;;6.38;2.80;;;;;;;3.61;98.57;97900.09;4929833;29;20055;-46
2022/11/22 04:38:48;;;;;;;8.38;2.60;;;;;;;3.60;98.90;97896.56;4931506;29;20059;-45
2022/11/22 04:41:15;;;;;;;7.68;3.75;;;;;;;3.58;98.72;97903.56;4929316;29;20449;-45
2022/11/22 04:46:27;;;;;;;8.18;3.05;;;;;;;3.55;98.86;97912.50;4913497;29;20044;-47
2022/11/22 04:48:54;;;;;;;8.88;3.22;;;;;;;3.56;98.76;97925.03;4930173;29;20051;-46
2022/11/22 04:54:06;;;;;;;10.90;3.92;;;;;;;3.56;98.96;97908.63;4930950;29;20070;-46
2022/11/22 04:56:32;;;;;;;13.35;2.72;;;;;;;3.57;99.25;97915.69;4930280;29;20142;-48
2022/11/22 04:58:59;;;;;;;7.13;2.90;;;;;;;3.56;98.85;97920.38;4929249;29;20050;-46
2022/11/22 05:01:26;;;;;;;4.72;2.67;;;;;;;3.55;99.06;97926.19;4928789;29;20143;-46
2022/11/22 05:03:53;;;;;;;7.28;2.65;;;;;;;3.54;98.92;97939.09;4929440;29;20079;-47
2022/11/22 05:06:19;;;;;;;4.97;2.65;;;;;;;3.54;99.19;97944.56;4939230;29;20489;-45
2022/11/22 05:08:46;;;;;;;9.68;3.15;;;;;;;3.53;99.29;97950.38;4931413;29;20061;-46
2022/11/22 05:11:13;;;;;;;9.05;3.90;;;;;;;3.51;99.48;97953.50;4934442;29;20071;-46
2022/11/22 05:13:41;;;;;;;15.35;4.13;;;;;;;3.50;99.56;97953.84;4930946;29;20039;-45
2022/11/22 05:16:11;;;;;;;10.93;4.93;;;;;;;3.48;99.28;97961.63;4930974;29;20055;-46
2022/11/22 05:18:38;;;;;;;7.57;5.30;;;;;;;3.46;99.57;97959.28;4930810;29;20036;-45
2022/11/22 05:21:10;;;;;;;15.88;5.95;;;;;;;3.44;99.62;97977.22;4930165;29;20115;-45
2022/11/22 05:23:53;;;;;;;12.20;7.00;;;;;;;3.42;99.52;97979.50;4932023;29;20422;-45
2022/11/22 05:26:24;;;;;;;16.58;7.45;;;;;;;3.40;99.41;97985.34;4931335;29;20122;-45
2022/11/22 05:28:51;;;;;;;14.40;4.82;;;;;;;3.38;99.63;97987.66;4931062;29;20427;-46
2022/11/22 05:31:22;;;;;;;10.35;5.40;;;;;;;3.36;99.66;97991.91;4930647;29;20054;-50
2022/11/22 05:33:51;;;;;;;8.27;4.63;;;;;;;3.35;99.59;97998.53;4930604;29;20457;-51
2022/11/22 05:36:18;;;;;;;9.30;4.30;;;;;;;3.34;99.60;97994.22;4929023;29;20166;-46
2022/11/22 05:38:45;;;;;;;8.75;3.83;;;;;;;3.32;99.65;97993.78;4930003;29;20609;-45
2022/11/22 05:41:14;;;;;;;10.10;3.60;;;;;;;3.32;99.39;97996.53;4928206;29;20050;-45
2022/11/22 05:43:41;;;;;;;9.80;3.83;;;;;;;3.29;99.63;98002.72;4929887;29;20044;-45
2022/11/22 05:46:12;;;;;;;7.85;3.05;;;;;;;3.27;99.75;98005.81;4928056;29;20079;-50
2022/11/22 05:48:41;;;;;;;9.05;3.40;;;;;;;3.23;99.71;98009.66;4929692;29;20494;-45
2022/11/22 05:51:11;;;;;;;8.23;3.13;;;;;;;3.24;99.63;98008.47;4927433;29;20445;-45
2022/11/22 05:53:38;;;;;;;10.38;4.05;;;;;;;3.21;99.91;98014.66;4929889;29;20063;-45
2022/11/22 05:56:10;;;;;;;9.45;3.60;;;;;;;3.20;100.00;98010.38;4930159;29;20070;-46
2022/11/22 05:58:37;;;;;;;9.50;2.50;;;;;;;3.20;99.74;98018.56;4921374;29;20040;-45
2022/11/22 06:01:06;;;;;;;6.10;3.10;;;;;;;3.21;100.00;98033.81;4927830;29;20474;-46
2022/11/22 06:03:33;;;;;;;7.20;3.72;;;;;;;3.21;100.00;98034.59;4930055;29;20043;-45
2022/11/22 06:06:01;;;;;;;8.10;3.63;;;;;;;3.21;100.00;98039.28;4928824;29;20048;-45
2022/11/22 06:08:29;;;;;;;10.13;2.83;;;;;;;3.19;100.00;98034.19;4927566;29;20139;-45
2022/11/22 06:11:06;;;;;;;8.05;3.33;;;;;;;3.16;99.93;98034.09;4926078;29;20043;-45
2022/11/22 06:13:37;;;;;;;8.90;3.25;;;;;;;3.15;99.84;98029.81;4926456;29;20130;-45
2022/11/22 06:16:06;;;;;;;11.17;3.53;;;;;;;3.14;100.00;98028.22;4927365;29;20056;-49
2022/11/22 06:18:33;;;;;;;6.80;3.08;;;;;;;3.13;100.00;98026.63;4929548;29;20333;-45
2022/11/22 06:21:03;;;;;;;7.20;3.47;;;;;;;3.10;100.00;98032.84;4927442;29;20044;-45
2022/11/22 06:23:30;;;;;;;10.77;4.10;;;;;;;3.07;100.00;98026.94;4928931;29;20486;-49
2022/11/22 06:26:09;;;;;;;7.20;3.97;;;;;;;3.06;100.00;98028.09;4922993;29;20362;-46
2022/11/22 06:28:37;;;;;;;10.50;4.05;;;;;;;3.05;100.00;98029.22;4929298;29;20051;-45
2022/11/22 06:31:11;;;;;;;10.32;3.50;;;;;;;3.03;100.00;98028.03;4907286;29;20554;-49
2022/11/22 06:33:40;;;;;;;9.38;3.50;;;;;;;3.00;100.00;98035.00;4926365;29;20043;-45
2022/11/22 06:36:10;;;;;;;11.73;3.95;;;;;;;2.98;99.98;98047.44;4935635;29;20078;-48
2022/11/22 06:38:38;;;;;;;10.60;4.00;;;;;;;2.96;100.00;98047.81;4930351;29;20143;-47
2022/11/22 06:41:17;;;;;;;11.57;4.10;;;;;;;2.94;100.00;98041.91;4929498;29;20737;-49
2022/11/22 06:43:46;;;;;;;15.23;5.38;;;;;;;2.92;100.00;98055.13;4929542;29;20050;-46
2022/11/22 06:46:17;;;;;;;11.57;3.50;;;;;;;2.92;100.00;98057.06;4928928;29;20520;-45
2022/11/22 06:48:45;;;;;;;6.75;3.92;;;;;;;2.91;100.00;98067.22;4929723;29;20036;-49
2022/11/22 06:51:17;;;;;;;10.98;4.03;;;;;;;2.93;100.00;98069.59;4929746;29;20450;-46
2022/11/22 06:53:44;;;;;;;8.60;3.53;;;;;;;2.95;100.00;98076.28;4932875;29;20561;-45
2022/11/22 06:56:26;;;;;;;13.45;3.90;;;;;;;2.98;100.00;98075.56;4933154;29;20082;-50
2022/11/22 06:58:53;;;;;;;14.32;4.15;;;;;;;3.00;100.00;98089.66;4933642;29;20044;-46
2022/11/22 07:01:23;;;;;;;8.93;3.10;;;;;;;3.04;100.00;98089.75;4932952;29;20070;-46
2022/11/22 07:03:54;;;;;;;9.95;4.05;;;;;;;3.07;100.00;98097.22;4932698;29;20047;-45
2022/11/22 07:06:21;;;;;;;17.87;5.60;;;;;;;3.10;100.00;98098.44;4931721;29;20412;-46
2022/11/22 07:08:48;;;;;;;9.88;4.78;;;;;;;3.14;100.00;98100.09;4931204;29;20079;-46
2022/11/22 07:11:18;;;;;;;11.43;4.72;;;;;;;3.20;100.00;98103.31;4930544;29;20135;-45
2022/11/22 07:13:46;;;;;;;9.82;4.38;;;;;;;3.24;100.00;98110.44;4930927;29;20139;-46
2022/11/22 07:16:17;;;;;;;10.68;4.00;;;;;;;3.28;100.00;98105.03;4929033;29;20048;-49
2022/11/22 07:18:43;;;;;;;10.52;4.82;;;;;;;3.33;100.00;98123.88;4929478;29;20067;-45
2022/11/22 07:21:21;;;;;;;6.68;3.13;;;;;;;3.38;100.00;98118.13;4930149;29;20055;-48
2022/11/22 07:23:51;;;;;;;8.18;3.70;;;;;;;3.42;100.00;98129.91;4930627;29;20516;-45
2022/11/22 07:26:20;;;;;;;8.45;4.13;;;;;;;3.46;100.00;98147.19;4932508;29;20130;-45
2022/11/22 07:28:47;;;;;;;10.52;3.25;;;;;;;3.50;100.00;98148.84;4929758;29;20078;-45
2022/11/22 07:31:16;;;;;;;9.50;4.90;;;;;;;3.51;100.00;98152.38;4927628;29;20050;-47
2022/11/22 07:33:43;;;;;;;8.02;3.70;;;;;;;3.52;100.00;98149.25;4928998;29;20547;-45
2022/11/22 07:36:13;;;;;;;13.80;5.55;;;;;;;3.52;100.00;98149.25;4932772;29;20056;-45
2022/11/22 07:38:40;;;;;;;17.45;4.32;;;;;;;3.52;100.00;98146.53;4929730;29;20071;-45
2022/11/22 07:41:07;;;;;;;8.85;4.38;;;;;;;3.55;100.00;98147.75;4931096;29;20048;-46
2022/11/22 07:43:34;;;;;;;12.20;5.60;;;;;;;3.60;100.00;98150.22;4933673;29;20052;-45
2022/11/22 07:46:10;;;;;;;8.30;4.63;;;;;;;3.62;100.00;98156.91;4932392;29;20066;-51
2022/11/22 07:48:37;;;;;;;10.60;4.15;;;;;;;3.68;100.00;98165.56;4933013;29;20090;-43
2022/11/22 07:51:07;;;;;;;12.85;4.47;;;;;;;3.73;100.00;98159.03;4933215;29;20047;-43
2022/11/22 07:53:34;;;;;;;10.98;4.15;;;;;;;3.75;100.00;98164.94;4932644;29;20111;-43
2022/11/22 07:56:02;;;;;;;12.70;4.10;;;;;;;3.79;100.00;98163.03;4915999;29;20046;-44
2022/11/22 07:58:29;;;;;;;14.20;4.63;;;;;;;3.83;100.00;98170.19;4932503;29;20079;-43
2022/11/22 08:00:56;;;;;;;12.95;4.32;;;;;;;3.86;100.00;98174.94;4931075;29;20052;-43
2022/11/22 08:03:23;;;;;;;10.82;5.07;;;;;;;3.89;100.00;98185.13;4935469;29;20052;-45
2022/11/22 08:05:59;;;;;;;9.45;3.70;;;;;;;3.90;100.00;98192.19;4929991;29;20111;-48
2022/11/22 08:08:26;;;;;;;11.38;5.38;;;;;;;3.88;100.00;98193.72;4927165;29;20039;-45
2022/11/22 08:10:53;;;;;;;8.05;4.55;;;;;;;3.85;100.00;98184.28;4929757;29;20039;-46
2022/11/22 08:13:23;;;;;;;11.98;5.03;;;;;;;3.86;100.00;98191.34;4930561;29;20541;-45
2022/11/22 08:15:50;;;;;;;10.30;5.57;;;;;;;3.88;100.00;98194.50;4932440;29;20054;-45
2022/11/22 08:18:21;;;;;;;10.85;5.32;;;;;;;3.84;100.00;98199.13;4931605;29;20458;-46
2022/11/22 08:20:48;;;;;;;10.20;4.78;;;;;;;3.82;100.00;98214.31;4932117;29;20053;-46
2022/11/22 08:23:15;;;;;;;13.82;5.70;;;;;;;3.74;100.00;98213.38;4931504;29;20059;-47
2022/11/22 08:25:45;;;;;;;11.18;5.07;;;;;;;3.68;100.00;98215.63;4932423;29;20058;-45
2022/11/22 08:28:12;;;;;;;8.48;5.05;;;;;;;3.66;100.00;98217.13;4930456;29;20386;-48
2022/11/22 08:30:39;;;;;;;8.07;4.05;;;;;;;3.61;100.00;98222.91;4926556;29;20063;-45
2022/11/22 08:33:06;;;;;;;7.55;4.28;;;;;;;3.57;100.00;98225.56;4930663;29;20056;-48
2022/11/22 08:35:33;;;;;;;12.25;4.90;;;;;;;3.53;100.00;98223.91;4926055;29;20421;-46
2022/11/22 08:38:00;;;;;;;15.80;5.05;;;;;;;3.48;100.00;98229.66;4932894;29;20057;-47
2022/11/22 08:40:26;;;;;;;10.82;4.93;;;;;;;3.44;100.00;98228.81;4933118;29;20438;-48
2022/11/22 08:42:54;;;;;;;9.70;5.05;;;;;;;3.38;100.00;98241.19;4933468;29;20126;-46
2022/11/22 08:45:21;;;;;;;9.80;4.95;;;;;;;3.34;100.00;98245.78;4933404;29;20061;-46
2022/11/22 08:47:48;;;;;;;10.35;5.72;;;;;;;3.29;100.00;98241.38;4933143;29;20569;-46
2022/11/22 08:50:17;;;;;;;14.77;7.30;;;;;;;3.28;100.00;98237.09;4931249;29;20051;-46
2022/11/22 08:52:43;;;;;;;12.80;7.47;;;;;;;3.26;100.00;98241.31;4931247;29;20404;-46
2022/11/22 08:55:10;;;;;;;10.60;6.70;;;;;;;3.29;100.00;98243.31;4928959;29;20090;-47
2022/11/22 08:57:37;;;;;;;9.95;5.60;;;;;;;3.29;100.00;98243.31;4933323;29;20413;-45
2022/11/22 09:00:05;;;;;;;9.70;5.72;;;;;;;3.31;100.00;98246.50;4931477;29;20075;-45
2022/11/22 09:02:32;;;;;;;10.10;6.75;;;;;;;3.31;100.00;98241.03;4930961;29;20051;-45
2022/11/22 09:04:59;;;;;;;11.32;6.03;;;;;;;3.33;100.00;98252.41;4930641;29;20451;-46
2022/11/22 09:07:27;;;;;;;9.25;5.70;;;;;;;3.31;100.00;98241.03;4913453;29;20052;-45
2022/11/22 09:10:17;;;;;;;11.55;6.53;;;;;;;3.34;100.00;98245.78;4932276;29;20051;-45
2022/11/22 09:12:44;;;;;;;13.45;6.40;;;;;;;3.38;100.00;98246.66;4930040;29;20512;-46
2022/11/22 09:15:12;;;;;;;13.02;7.78;;;;;;;3.39;100.00;98249.03;4929389;29;20063;-45
2022/11/22 09:17:39;;;;;;;17.05;6.22;;;;;;;3.43;100.00;98244.44;4925724;29;20099;-45
2022/11/22 09:20:06;;;;;;;11.40;7.18;;;;;;;3.44;100.00;98246.00;4930331;29;20509;-49
2022/11/22 09:22:33;;;;;;;12.63;7.72;;;;;;;3.46;100.00;98249.19;4931806;29;20421;-45
2022/11/22 09:25:02;;;;;;;13.07;8.05;;;;;;;3.48;100.00;98246.09;4918629;29;20047;-44
2022/11/22 09:27:29;;;;;;;13.68;7.20;;;;;;;3.51;100.00;98246.16;4930055;29;20048;-44
2022/11/22 09:29:56;;;;;;;12.63;7.50;;;;;;;3.52;100.00;98246.97;4929956;29;20071;-44
2022/11/22 09:32:22;;;;;;;13.63;7.22;;;;;;;3.57;100.00;98254.88;4928971;29;20402;-44
2022/11/22 09:34:53;;;;;;;12.13;7.55;;;;;;;3.59;100.00;98253.38;4929606;29;20048;-44
2022/11/22 09:37:20;;;;;;;15.32;8.73;;;;;;;3.63;100.00;98254.22;4912864;29;20051;-44
2022/11/22 09:39:47;;;;;;;14.43;7.53;;;;;;;3.66;100.00;98255.44;4929233;29;20125;-46
2022/11/22 09:42:39;;;;;;;11.63;7.53;;;;;;;3.67;100.00;98251.56;4928576;29;20131;-45
2022/11/22 09:45:21;;;;;;;14.75;7.53;;;;;;;3.69;100.00;98255.53;4929239;29;20060;-44
2022/11/22 09:47:54;;;;;;;16.05;8.10;;;;;;;3.71;100.00;98248.91;4919375;29;20055;-44
2022/11/22 09:50:34;;;;;;;16.52;9.38;;;;;;;3.68;100.00;98256.66;4915282;29;20050;-44
2022/11/22 09:53:11;;;;;;;16.15;9.10;;;;;;;3.69;100.00;98255.53;4932048;29;20052;-47
2022/11/22 09:55:48;;;;;;;23.33;8.73;;;;;;;3.73;100.00;98252.88;4932063;29;20065;-46
2022/11/22 09:58:33;;;;;;;17.98;9.52;;;;;;;3.75;100.00;98269.72;4932355;29;20056;-44
2022/11/22 10:01:07;;;;;;;15.13;9.07;;;;;;;3.76;100.00;98262.31;4913191;29;20058;-46
2022/11/22 10:03:50;;;;;;;17.83;9.93;;;;;;;3.75;100.00;98269.72;4922737;29;20075;-48
2022/11/22 10:06:33;;;;;;;22.33;10.27;;;;;;;3.78;100.00;98282.69;4929738;29;20062;-44
2022/11/22 10:09:09;;;;;;;19.77;11.10;;;;;;;3.82;100.00;98282.72;4930003;29;20109;-44
2022/11/22 10:11:45;;;;;;;18.52;9.70;;;;;;;3.86;100.00;98295.34;4927404;29;20060;-50
2022/11/22 10:14:43;;;;;;;25.88;11.52;;;;;;;3.86;100.00;98289.09;4928063;29;20058;-44
2022/11/22 10:17:34;;;;;;;24.30;10.48;;;;;;;3.87;100.00;98291.44;4920562;29;20512;-44
2022/11/22 10:20:23;;;;;;;20.75;10.98;;;;;;;3.90;100.00;98289.94;4926045;29;20051;-44
2022/11/22 10:22:50;;;;;;;22.98;10.68;;;;;;;3.91;100.00;98295.06;4929214;29;20043;-44
2022/11/22 10:25:38;;;;;;;23.30;13.65;;;;;;;3.96;100.00;98289.28;4927145;29;20138;-44
2022/11/22 10:28:27;;;;;;;23.17;10.45;;;;;;;4.01;100.00;98291.75;4914350;29;20048;-44
2022/11/22 10:31:19;;;;;;;23.33;11.23;;;;;;;4.03;100.00;98297.63;4922848;29;20055;-44
2022/11/22 10:34:10;;;;;;;20.02;12.10;;;;;;;4.04;100.00;98312.91;4930192;29;20039;-44
2022/11/22 10:36:48;;;;;;;25.17;10.70;;;;;;;4.03;100.00;98294.91;4927636;29;20493;-44
2022/11/22 10:39:17;;;;;;;22.23;13.00;;;;;;;4.09;100.00;98304.41;4922254;29;20336;-44
2022/11/22 10:41:56;;;;;;;21.27;10.27;;;;;;;4.16;100.00;98306.47;4930347;29;20043;-45
2022/11/22 10:44:30;;;;;;;23.60;11.38;;;;;;;4.20;100.00;98321.84;4921492;29;20043;-45
2022/11/22 10:47:40;;;;;;;26.38;11.77;;;;;;;4.21;100.00;98315.19;4928650;29;20071;-44
2022/11/22 10:50:18;;;;;;;22.83;11.70;;;;;;;4.25;100.00;98309.78;4896909;29;20052;-44
2022/11/22 10:53:01;;;;;;;22.33;12.70;;;;;;;4.29;100.00;98305.16;4923824;29;20055;-48
2022/11/22 10:55:31;;;;;;;22.17;11.80;;;;;;;4.34;100.00;98301.34;4914195;29;20058;-46
2022/11/22 10:58:20;;;;;;;21.50;11.63;;;;;;;4.39;100.00;98301.06;4929740;29;20134;-44
2022/11/22 11:00:54;;;;;;;26.27;13.18;;;;;;;4.41;100.00;98298.75;4921972;29;20058;-45
2022/11/22 11:03:28;;;;;;;25.40;11.82;;;;;;;4.46;100.00;98298.44;4940154;29;20094;-44
2022/11/22 11:06:13;;;;;;;24.88;12.48;;;;;;;4.50;100.00;98302.03;4935024;29;20051;-44
2022/11/22 11:09:07;;;;;;;19.88;11.02;;;;;;;4.54;100.00;98302.88;4933060;29;20406;-46
2022/11/22 11:11:54;;;;;;;23.40;11.13;;;;;;;4.57;100.00;98307.66;4926093;29;20139;-44
2022/11/22 11:14:35;;;;;;;28.92;13.98;;;;;;;4.57;100.00;98307.66;4928969;29;20130;-45
2022/11/22 11:17:02;;;;;;;23.30;11.38;;;;;;;4.61;100.00;98312.03;4932933;29;20134;-46
2022/11/22 11:19:36;;;;;;;22.20;11.23;;;;;;;4.63;100.00;98308.94;4927080;29;20040;-43
2022/11/22 11:22:05;;;;;;;25.85;13.98;;;;;;;4.69;100.00;98310.19;4931641;29;20048;-47
2022/11/22 11:24:39;;;;;;;21.30;10.77;;;;;;;4.73;100.00;98311.84;4936229;29;20467;-44
2022/11/22 11:27:09;;;;;;;26.00;12.10;;;;;;;4.76;100.00;98304.84;4930906;29;20483;-43
2022/11/22 11:29:46;;;;;;;22.88;11.75;;;;;;;4.81;100.00;98312.75;4936522;29;20154;-46
2022/11/22 11:32:19;;;;;;;28.02;13.45;;;;;;;4.80;100.00;98314.72;4935944;29;20043;-47
2022/11/22 11:34:56;;;;;;;;;;;;;;;4.82;100.00;98326.09;4931384;29;20047;-44
2022/11/22 11:37:35;;;;;;;23.77;13.07;;;;;;;4.81;100.00;98332.75;4931709;29;19927;-45
2022/11/22 11:40:05;;;;;;;27.23;14.43;;;;;;;4.79;100.00;98332.31;4932149;29;20055;-43
2022/11/22 11:42:33;;;;;;;22.58;11.95;;;;;;;4.75;100.00;98334.19;4934555;29;20469;-48
2022/11/22 11:45:26;;;;;;;30.02;12.95;;;;;;;4.72;100.00;98342.34;4935861;29;20059;-44
2022/11/22 11:47:53;;;;;;;26.67;12.63;;;;;;;4.69;100.00;98345.81;4941500;29;20514;-43
2022/11/22 11:50:23;;;;;;;26.20;12.30;;;;;;;4.68;100.00;98336.03;4917718;29;20058;-43
2022/11/22 11:53:04;;;;;;;32.05;14.20;;;;;;;4.67;100.00;98339.91;4917605;29;20051;-43
2022/11/22 11:55:36;;;;;;;31.38;12.68;;;;;;;4.66;100.00;98343.84;4927048;29;20142;-42
2022/11/22 11:58:14;;;;;;;28.98;11.73;;;;;;;4.63;100.00;98342.59;4930703;29;20042;-45